Westlake, OR (97493)

4:47 AM PDT on August 30, 2016 (GMT -0700)
Cleawox Lake | | Change Station

Elev 148 ft 43.94 °N, 124.11 °W | Updated 29 seconds ago

Overcast
Overcast
55.8 °F
Feels Like 55.8 °F
N
0.0
Wind Variable Wind from SSE

Today
High -- | Low -- °F
--% Chance of Precip.
Yesterday
High -- | Low -- °F
Precip. -- in
Pressure 30.09 in
Visibility 10.0 miles
Clouds Mostly Cloudy 1700 ft
Overcast 2700 ft
Dew Point 55 °F
Humidity 97%
Rainfall 0.02 in
Snow Depth Not available.
6:38 AM 7:54 PM
Waning Crescent, 4% visible
METAR KOTH 301135Z 00000KT 10SM BKN017 OVC027 14/13 A3009 RMK AO1
Pressure 30.09 in
Visibility 10.0 miles
Clouds Mostly Cloudy 1700 ft
Overcast 2700 ft
Dew Point 55 °F
Humidity 97%
Rainfall 0.02 in
Snow Depth Not available.
6:38 AM 7:54 PM
Waning Crescent, 4% visible
METAR KOTH 301135Z 00000KT 10SM BKN017 OVC027 14/13 A3009 RMK AO1

10-Day Weather Forecast

Almanac

Astronomy

Aug. 30, 2016 Rise Set
Actual Time
Civil Twilight
Nautical Twilight
Astronomical Twilight
Moon
Length of Visible Light
Length of Day
Tomorrow will be .
, % of the Moon is Illuminated

Today's Extremes

State Highs State Lows

Community

WunderPhotos

Upload Photos

1,935,814 photos uploaded!

WunderBlog® & News

Nearby

Air Quality

  Air Quality AQ Index Pollutant
Not available.

Snow Depth

Station Depth Elevation

Earthquake Activity

City Distance Mag. Time & Date
Minimum magnitude displayed is 2.5.

Coastal Water Temperatures

Place Temperature

Stations

Nearby Weather Stations

Station Location Temp. Windchill Dew Point Humidity Wind Precip. Elev Updated Type
                   

Watches & Warnings

There are currently no watches in effect.